sensor_id;sensor_type;location;lat;lon;timestamp;P1;durP1;ratioP1;P2;durP2;ratioP2
1887;SDS011;944;51.574;6.980;2022-11-18T00:02:49;16.10;;;8.03;;
1887;SDS011;944;51.574;6.980;2022-11-18T00:05:33;7.47;;;3.40;;
1887;SDS011;944;51.574;6.980;2022-11-18T00:08:27;7.67;;;3.53;;
1887;SDS011;944;51.574;6.980;2022-11-18T00:11:16;8.73;;;3.83;;
1887;SDS011;944;51.574;6.980;2022-11-18T00:14:16;8.67;;;4.17;;
1887;SDS011;944;51.574;6.980;2022-11-18T00:17:02;8.90;;;3.83;;
1887;SDS011;944;51.574;6.980;2022-11-18T00:19:50;6.80;;;3.60;;
1887;SDS011;944;51.574;6.980;2022-11-18T00:22:37;11.03;;;3.90;;
1887;SDS011;944;51.574;6.980;2022-11-18T00:25:58;10.17;;;3.30;;
1887;SDS011;944;51.574;6.980;2022-11-18T00:29:01;6.40;;;3.27;;
1887;SDS011;944;51.574;6.980;2022-11-18T00:47:46;6.53;;;3.50;;
1887;SDS011;944;51.574;6.980;2022-11-18T00:54:42;5.00;;;3.00;;
1887;SDS011;944;51.574;6.980;2022-11-18T01:08:45;2.93;;;2.23;;
1887;SDS011;944;51.574;6.980;2022-11-18T01:11:16;6.37;;;3.03;;
1887;SDS011;944;51.574;6.980;2022-11-18T01:14:03;9.10;;;2.97;;
1887;SDS011;944;51.574;6.980;2022-11-18T01:16:35;7.47;;;2.70;;
1887;SDS011;944;51.574;6.980;2022-11-18T01:19:17;6.97;;;2.40;;
1887;SDS011;944;51.574;6.980;2022-11-18T01:22:07;5.93;;;2.90;;
1887;SDS011;944;51.574;6.980;2022-11-18T01:24:46;9.03;;;3.50;;
1887;SDS011;944;51.574;6.980;2022-11-18T01:27:52;10.53;;;2.93;;
1887;SDS011;944;51.574;6.980;2022-11-18T01:30:16;6.30;;;2.87;;
1887;SDS011;944;51.574;6.980;2022-11-18T01:33:02;10.10;;;3.50;;
1887;SDS011;944;51.574;6.980;2022-11-18T01:35:37;11.60;;;4.10;;
1887;SDS011;944;51.574;6.980;2022-11-18T01:38:12;12.13;;;3.20;;
1887;SDS011;944;51.574;6.980;2022-11-18T01:41:05;8.87;;;2.93;;
1887;SDS011;944;51.574;6.980;2022-11-18T01:43:54;11.80;;;3.20;;
1887;SDS011;944;51.574;6.980;2022-11-18T01:46:26;9.27;;;2.80;;
1887;SDS011;944;51.574;6.980;2022-11-18T01:49:02;6.33;;;2.80;;
1887;SDS011;944;51.574;6.980;2022-11-18T01:51:41;6.70;;;2.73;;
1887;SDS011;944;51.574;6.980;2022-11-18T01:54:25;5.30;;;3.00;;
1887;SDS011;944;51.574;6.980;2022-11-18T01:57:10;6.30;;;2.70;;
1887;SDS011;944;51.574;6.980;2022-11-18T01:59:53;5.40;;;2.67;;
1887;SDS011;944;51.574;6.980;2022-11-18T02:02:30;4.80;;;2.80;;
1887;SDS011;944;51.574;6.980;2022-11-18T02:05:21;8.87;;;3.07;;
1887;SDS011;944;51.574;6.980;2022-11-18T02:08:07;11.47;;;2.87;;
1887;SDS011;944;51.574;6.980;2022-11-18T02:10:46;8.93;;;3.50;;
1887;SDS011;944;51.574;6.980;2022-11-18T02:16:01;10.47;;;3.77;;
1887;SDS011;944;51.574;6.980;2022-11-18T02:18:37;6.60;;;2.93;;
1887;SDS011;944;51.574;6.980;2022-11-18T02:21:16;7.43;;;2.97;;
1887;SDS011;944;51.574;6.980;2022-11-18T02:24:35;6.37;;;2.77;;
1887;SDS011;944;51.574;6.980;2022-11-18T02:33:58;12.03;;;2.90;;
1887;SDS011;944;51.574;6.980;2022-11-18T02:36:53;3.83;;;2.63;;
1887;SDS011;944;51.574;6.980;2022-11-18T02:40:12;16.80;;;3.60;;
1887;SDS011;944;51.574;6.980;2022-11-18T04:51:59;17.50;;;6.30;;
1887;SDS011;944;51.574;6.980;2022-11-18T09:54:52;32.77;;;12.00;;
1887;SDS011;944;51.574;6.980;2022-11-18T09:57:38;36.03;;;12.20;;
1887;SDS011;944;51.574;6.980;2022-11-18T10:00:28;32.30;;;10.70;;
1887;SDS011;944;51.574;6.980;2022-11-18T10:02:59;31.60;;;10.73;;
1887;SDS011;944;51.574;6.980;2022-11-18T10:05:37;24.83;;;11.73;;
1887;SDS011;944;51.574;6.980;2022-11-18T10:15:43;19.10;;;9.87;;
1887;SDS011;944;51.574;6.980;2022-11-18T10:18:21;24.70;;;12.23;;
1887;SDS011;944;51.574;6.980;2022-11-18T10:21:12;24.97;;;10.47;;
1887;SDS011;944;51.574;6.980;2022-11-18T10:23:52;22.40;;;10.50;;
1887;SDS011;944;51.574;6.980;2022-11-18T10:26:42;30.77;;;11.67;;
1887;SDS011;944;51.574;6.980;2022-11-18T10:40:42;26.30;;;9.90;;
1887;SDS011;944;51.574;6.980;2022-11-18T10:44:04;24.07;;;9.30;;
1887;SDS011;944;51.574;6.980;2022-11-18T10:47:31;21.43;;;9.60;;
1887;SDS011;944;51.574;6.980;2022-11-18T10:50:55;29.93;;;9.63;;
1887;SDS011;944;51.574;6.980;2022-11-18T11:07:50;24.43;;;9.33;;
1887;SDS011;944;51.574;6.980;2022-11-18T11:18:38;20.47;;;9.73;;
1887;SDS011;944;51.574;6.980;2022-11-18T11:21:35;25.67;;;10.77;;
1887;SDS011;944;51.574;6.980;2022-11-18T11:24:38;30.67;;;10.70;;
1887;SDS011;944;51.574;6.980;2022-11-18T11:27:39;43.80;;;11.37;;
1887;SDS011;944;51.574;6.980;2022-11-18T11:33:54;26.23;;;12.67;;
1887;SDS011;944;51.574;6.980;2022-11-18T12:44:47;16.03;;;5.50;;
1887;SDS011;944;51.574;6.980;2022-11-18T12:53:28;24.93;;;9.50;;
1887;SDS011;944;51.574;6.980;2022-11-18T12:56:11;18.63;;;5.57;;
1887;SDS011;944;51.574;6.980;2022-11-18T12:59:15;28.03;;;8.70;;
1887;SDS011;944;51.574;6.980;2022-11-18T13:02:05;13.93;;;5.70;;
1887;SDS011;944;51.574;6.980;2022-11-18T13:05:03;14.13;;;4.90;;
1887;SDS011;944;51.574;6.980;2022-11-18T13:07:43;11.73;;;5.87;;
1887;SDS011;944;51.574;6.980;2022-11-18T13:10:36;15.47;;;5.30;;
1887;SDS011;944;51.574;6.980;2022-11-18T13:13:27;12.33;;;4.60;;
1887;SDS011;944;51.574;6.980;2022-11-18T13:16:15;16.03;;;6.50;;
1887;SDS011;944;51.574;6.980;2022-11-18T13:19:04;19.47;;;5.60;;
1887;SDS011;944;51.574;6.980;2022-11-18T13:21:33;19.33;;;6.17;;
1887;SDS011;944;51.574;6.980;2022-11-18T13:24:22;22.37;;;6.80;;
1887;SDS011;944;51.574;6.980;2022-11-18T13:27:44;17.80;;;5.73;;
1887;SDS011;944;51.574;6.980;2022-11-18T13:30:30;11.47;;;5.70;;
1887;SDS011;944;51.574;6.980;2022-11-18T13:33:12;20.97;;;6.57;;
1887;SDS011;944;51.574;6.980;2022-11-18T13:35:41;13.13;;;6.20;;
1887;SDS011;944;51.574;6.980;2022-11-18T13:38:15;19.37;;;5.80;;
1887;SDS011;944;51.574;6.980;2022-11-18T13:40:48;20.73;;;8.10;;
1887;SDS011;944;51.574;6.980;2022-11-18T13:43:48;18.90;;;8.10;;
1887;SDS011;944;51.574;6.980;2022-11-18T13:46:18;19.10;;;6.50;;
1887;SDS011;944;51.574;6.980;2022-11-18T13:49:26;17.97;;;6.50;;
1887;SDS011;944;51.574;6.980;2022-11-18T13:55:52;21.43;;;5.87;;
1887;SDS011;944;51.574;6.980;2022-11-18T13:58:30;17.93;;;6.90;;
1887;SDS011;944;51.574;6.980;2022-11-18T14:01:02;17.63;;;6.30;;
1887;SDS011;944;51.574;6.980;2022-11-18T14:03:44;16.67;;;5.73;;
1887;SDS011;944;51.574;6.980;2022-11-18T14:06:23;17.90;;;5.97;;
1887;SDS011;944;51.574;6.980;2022-11-18T14:09:14;11.47;;;5.70;;
1887;SDS011;944;51.574;6.980;2022-11-18T14:11:58;17.80;;;7.77;;
1887;SDS011;944;51.574;6.980;2022-11-18T14:14:30;11.97;;;6.07;;
1887;SDS011;944;51.574;6.980;2022-11-18T14:17:03;22.60;;;6.70;;
1887;SDS011;944;51.574;6.980;2022-11-18T14:23:01;14.57;;;6.67;;
1887;SDS011;944;51.574;6.980;2022-11-18T14:25:43;13.67;;;6.03;;
1887;SDS011;944;51.574;6.980;2022-11-18T14:31:22;25.20;;;8.80;;
1887;SDS011;944;51.574;6.980;2022-11-18T14:38:28;26.27;;;8.50;;
1887;SDS011;944;51.574;6.980;2022-11-18T14:41:44;19.10;;;7.40;;
1887;SDS011;944;51.574;6.980;2022-11-18T14:44:24;23.50;;;9.40;;
1887;SDS011;944;51.574;6.980;2022-11-18T14:47:11;16.20;;;7.63;;
1887;SDS011;944;51.574;6.980;2022-11-18T14:52:43;20.80;;;7.93;;
